Terminal Aerodrome Forecast
Issued by NWS

Home | Current Version | Previous Version | Graphics & Text | Print | Product List | Glossary On
Versions: 1 2 3 4 5 6 7 8 9 10 11 12 13 14 15 16 17 18 19 20
000
FTUS43 KPAH 210520
TAFOWB
TAF
KOWB 210520Z 2106/2206 18004KT P6SM SCT050 BKN200
     FM211600 18009KT P6SM SCT025 BKN090 PROB30 2118/2124 4SM -TSRA
      BKN030CB
     FM220000 19005KT P6SM FEW035 BKN100=

USA.gov is the U.S. government's official web portal to all federal, state and local government web resources and services.